Time;durP1;ratioP1;P1;durP2;ratioP2;P2;SDS_P1;SDS_P2;PMS_P1;PMS_P2;Temp;Humidity;BMP_temperature;BMP_pressure;BME280_temperature;BME280_humidity;BME280_pressure;Samples;Min_cycle;Max_cycle;Signal;HPM_P1;HPM_P2
2023/08/30 00:02:23;;;;;;;6.13;5.07;;;24.80;56.00;;;;;;5031321;28;20444;-77
2023/08/30 00:04:50;;;;;;;6.00;5.40;;;24.80;56.10;;;;;;5030630;28;20501;-77
2023/08/30 00:07:19;;;;;;;7.47;4.77;;;24.80;56.00;;;;;;5031001;28;20486;-77
2023/08/30 00:09:47;;;;;;;5.13;4.73;;;24.80;56.10;;;;;;5033591;28;20843;-77
2023/08/30 00:12:15;;;;;;;5.53;4.57;;;24.80;56.20;;;;;;5034886;28;20913;-77
2023/08/30 00:14:43;;;;;;;5.07;4.67;;;24.80;56.30;;;;;;5035189;28;20534;-77
2023/08/30 00:17:11;;;;;;;5.53;4.97;;;24.80;56.20;;;;;;5034547;28;20469;-76
2023/08/30 00:19:40;;;;;;;5.20;4.80;;;24.80;56.20;;;;;;5027103;28;20447;-78
2023/08/30 00:22:08;;;;;;;6.57;4.70;;;24.80;56.10;;;;;;5034621;28;20428;-77
2023/08/30 00:24:36;;;;;;;5.73;5.17;;;24.80;56.20;;;;;;5034484;28;20475;-77
2023/08/30 00:27:04;;;;;;;5.20;4.70;;;24.80;56.10;;;;;;5034559;28;20443;-77
2023/08/30 00:29:32;;;;;;;6.23;5.27;;;24.80;56.20;;;;;;5035178;28;20471;-77
2023/08/30 00:32:00;;;;;;;4.90;4.40;;;24.70;56.20;;;;;;5034582;28;20440;-77
2023/08/30 00:34:28;;;;;;;5.13;4.73;;;24.80;57.00;;;;;;5034657;28;20515;-77
2023/08/30 00:36:58;;;;;;;4.67;4.27;;;24.80;56.20;;;;;;5034243;28;21031;-77
2023/08/30 00:39:26;;;;;;;5.17;4.67;;;24.80;56.30;;;;;;5034399;28;20982;-77
2023/08/30 00:41:54;;;;;;;5.40;4.90;;;24.80;56.30;;;;;;5034266;28;20535;-77
2023/08/30 00:44:22;;;;;;;5.30;4.80;;;24.80;56.10;;;;;;5034382;28;20459;-77
2023/08/30 00:46:50;;;;;;;5.00;4.40;;;24.80;56.20;;;;;;5034303;28;20547;-77
2023/08/30 00:49:18;;;;;;;5.53;4.27;;;24.80;56.20;;;;;;5034181;28;20546;-77
2023/08/30 00:51:46;;;;;;;4.93;4.40;;;24.70;56.20;;;;;;5034486;28;20448;-77
2023/08/30 00:54:16;;;;;;;5.10;4.47;;;24.80;56.10;;;;;;5034330;28;20479;-77
2023/08/30 00:56:46;;;;;;;4.70;4.30;;;24.80;56.20;;;;;;5034028;28;20447;-77
2023/08/30 00:59:14;;;;;;;4.53;4.10;;;24.80;56.20;;;;;;5034022;28;20494;-77
2023/08/30 01:01:42;;;;;;;4.77;4.27;;;24.80;56.10;;;;;;5033524;28;20482;-77
2023/08/30 01:04:11;;;;;;;4.60;4.20;;;24.80;56.10;;;;;;5032331;28;20530;-77
2023/08/30 01:06:38;;;;;;;4.57;3.90;;;24.70;56.10;;;;;;5032272;28;20558;-77
2023/08/30 01:09:06;;;;;;;4.20;3.90;;;24.70;56.20;;;;;;5032417;28;20463;-77
2023/08/30 01:11:40;;;;;;;3.90;3.60;;;24.70;56.10;;;;;;5032431;28;20451;-77
2023/08/30 01:14:09;;;;;;;4.37;4.03;;;24.70;56.20;;;;;;5032880;28;20451;-77
2023/08/30 01:16:38;;;;;;;4.00;3.70;;;24.70;56.00;;;;;;5032436;28;20510;-77
2023/08/30 01:19:13;;;;;;;4.17;3.80;;;24.70;56.00;;;;;;5033607;28;20486;-77
2023/08/30 01:21:49;;;;;;;4.47;4.07;;;24.70;56.00;;;;;;5033051;28;20469;-77
2023/08/30 01:24:22;;;;;;;4.17;3.80;;;24.70;56.10;;;;;;5033880;28;20439;-77
2023/08/30 01:27:00;;;;;;;4.30;3.90;;;24.70;56.00;;;;;;5033511;28;20575;-77
2023/08/30 01:29:28;;;;;;;4.13;3.80;;;24.60;56.10;;;;;;5033435;28;20918;-77
2023/08/30 01:31:56;;;;;;;4.20;3.90;;;24.70;56.10;;;;;;5033656;28;20454;-77
2023/08/30 01:34:25;;;;;;;3.80;3.50;;;24.70;56.20;;;;;;5033374;28;20530;-77
2023/08/30 01:36:53;;;;;;;4.00;3.70;;;24.70;56.10;;;;;;5033738;28;20440;-77
2023/08/30 01:39:22;;;;;;;3.63;3.33;;;24.60;56.20;;;;;;5033259;28;20466;-77
2023/08/30 01:41:52;;;;;;;3.47;3.23;;;24.60;56.30;;;;;;5033435;28;20538;-77
2023/08/30 01:44:21;;;;;;;3.73;3.50;;;24.60;56.20;;;;;;5033376;28;20531;-77
2023/08/30 01:46:49;;;;;;;4.23;3.50;;;24.60;56.00;;;;;;5033675;28;20491;-77
2023/08/30 01:49:17;;;;;;;3.70;3.40;;;24.60;56.20;;;;;;5033210;28;20510;-77
2023/08/30 01:51:45;;;;;;;3.30;3.10;;;24.60;56.20;;;;;;5033551;28;20527;-77
2023/08/30 01:54:13;;;;;;;3.57;3.37;;;24.60;56.20;;;;;;5033030;28;20475;-77
2023/08/30 01:56:41;;;;;;;3.87;3.20;;;24.60;56.10;;;;;;5033119;28;20527;-77
2023/08/30 01:59:09;;;;;;;3.23;3.00;;;24.50;56.20;;;;;;5032783;28;20989;-77
2023/08/30 02:01:39;;;;;;;3.10;2.90;;;24.60;56.30;;;;;;5032944;28;20481;-77
2023/08/30 02:04:07;;;;;;;3.27;3.07;;;24.50;56.20;;;;;;5032960;28;20448;-77
2023/08/30 02:06:36;;;;;;;3.27;3.07;;;24.50;56.30;;;;;;5032678;28;20542;-77
2023/08/30 02:09:05;;;;;;;3.90;3.50;;;24.50;56.40;;;;;;5033306;28;20498;-76
2023/08/30 02:11:34;;;;;;;3.30;3.00;;;24.50;56.30;;;;;;5033082;28;20493;-77
2023/08/30 02:14:02;;;;;;;3.60;3.10;;;24.40;56.20;;;;;;5032878;28;20546;-77
2023/08/30 02:16:30;;;;;;;3.30;3.10;;;24.40;56.20;;;;;;5032832;28;20444;-77
2023/08/30 02:19:00;;;;;;;3.17;2.97;;;24.40;56.30;;;;;;5033501;28;20502;-76
2023/08/30 02:21:28;;;;;;;3.83;3.30;;;24.40;56.30;;;;;;5033373;28;20535;-77
2023/08/30 02:23:56;;;;;;;3.20;3.00;;;24.40;56.40;;;;;;5032972;28;21061;-77
2023/08/30 02:26:24;;;;;;;4.10;3.13;;;24.40;56.50;;;;;;5032625;28;20565;-77
2023/08/30 02:28:53;;;;;;;3.47;2.90;;;24.40;56.30;;;;;;5032317;28;20506;-77
2023/08/30 02:31:21;;;;;;;3.20;3.00;;;24.30;56.30;;;;;;5032588;28;20517;-77
2023/08/30 02:33:49;;;;;;;3.93;3.20;;;24.30;56.60;;;;;;5031811;28;20478;-77
2023/08/30 02:36:19;;;;;;;3.10;2.80;;;24.30;56.50;;;;;;5032531;28;20453;-77
2023/08/30 02:38:47;;;;;;;5.90;3.00;;;24.30;56.60;;;;;;5032230;28;20495;-77
2023/08/30 02:41:15;;;;;;;3.10;2.67;;;24.30;56.70;;;;;;5032204;28;20535;-76
2023/08/30 02:43:43;;;;;;;3.20;3.00;;;24.30;56.70;;;;;;5031640;28;20463;-77
2023/08/30 02:46:11;;;;;;;2.77;2.57;;;24.30;56.70;;;;;;5030636;28;20472;-77
2023/08/30 02:48:39;;;;;;;3.53;2.80;;;24.30;56.70;;;;;;5030399;28;20471;-76
2023/08/30 02:51:08;;;;;;;2.90;2.70;;;24.30;56.80;;;;;;5030544;28;20511;-77
2023/08/30 02:53:37;;;;;;;3.10;2.80;;;24.20;56.70;;;;;;5030600;28;20450;-77
2023/08/30 02:56:05;;;;;;;3.63;3.00;;;24.20;56.70;;;;;;5029941;28;20449;-77
2023/08/30 02:58:33;;;;;;;2.50;2.40;;;24.20;56.60;;;;;;5029858;28;20447;-77
2023/08/30 03:01:02;;;;;;;2.80;2.53;;;24.20;56.70;;;;;;5030574;28;20422;-76
2023/08/30 03:03:30;;;;;;;2.70;2.57;;;24.20;56.70;;;;;;5030370;28;20417;-76
2023/08/30 03:05:59;;;;;;;2.63;2.43;;;24.20;56.70;;;;;;5025561;28;20483;-77
2023/08/30 03:08:26;;;;;;;2.83;2.60;;;24.10;56.80;;;;;;5031674;28;20443;-76
2023/08/30 03:10:56;;;;;;;2.67;2.57;;;24.10;56.90;;;;;;5031308;28;20787;-76
2023/08/30 03:13:24;;;;;;;2.70;2.60;;;24.10;57.00;;;;;;5031639;28;20471;-77
2023/08/30 03:15:52;;;;;;;3.53;2.50;;;24.10;56.80;;;;;;5031838;28;20847;-77
2023/08/30 03:18:20;;;;;;;2.37;2.27;;;24.10;57.00;;;;;;5031127;28;20459;-76
2023/08/30 03:20:48;;;;;;;2.80;2.40;;;24.10;57.10;;;;;;5031681;28;20530;-75
2023/08/30 03:23:16;;;;;;;3.00;2.70;;;24.10;57.00;;;;;;5031501;28;20522;-76
2023/08/30 03:25:44;;;;;;;2.60;2.50;;;24.10;57.00;;;;;;5031353;28;20508;-78
2023/08/30 03:28:13;;;;;;;3.60;3.30;;;24.10;56.90;;;;;;5031872;28;20440;-76
2023/08/30 03:30:41;;;;;;;2.73;2.53;;;24.00;56.80;;;;;;5031716;28;20464;-76
2023/08/30 03:33:09;;;;;;;2.80;2.60;;;24.00;57.00;;;;;;5033006;28;21014;-77
2023/08/30 03:35:37;;;;;;;2.87;2.67;;;24.00;57.80;;;;;;5032496;28;20462;-77
2023/08/30 03:38:05;;;;;;;2.50;2.40;;;24.00;57.80;;;;;;5031722;28;20511;-78
2023/08/30 03:40:33;;;;;;;2.60;2.40;;;24.00;56.90;;;;;;5028426;28;20459;-77
2023/08/30 03:43:00;;;;;;;5.03;2.50;;;24.00;57.20;;;;;;5023718;28;20458;-77
2023/08/30 03:45:30;;;;;;;4.10;2.77;;;24.00;56.90;;;;;;5031391;28;20464;-77
2023/08/30 03:47:57;;;;;;;2.40;2.20;;;23.90;56.90;;;;;;5031002;28;20481;-78
2023/08/30 03:50:25;;;;;;;2.87;2.20;;;23.90;57.10;;;;;;5031154;28;20517;-77
2023/08/30 03:52:53;;;;;;;2.90;2.70;;;23.90;57.10;;;;;;5031206;28;21033;-78
2023/08/30 03:55:22;;;;;;;3.30;3.00;;;23.90;57.10;;;;;;5031461;28;20487;-78
2023/08/30 03:57:50;;;;;;;2.77;2.27;;;24.00;57.00;;;;;;5030914;28;20437;-78
2023/08/30 04:00:18;;;;;;;2.80;2.70;;;24.00;56.90;;;;;;5031295;28;20458;-77
2023/08/30 04:02:48;;;;;;;2.80;2.60;;;23.90;56.80;;;;;;5031566;28;20503;-78
2023/08/30 04:05:16;;;;;;;2.73;2.53;;;23.90;57.00;;;;;;5031441;28;20439;-77
2023/08/30 04:07:43;;;;;;;2.10;2.00;;;23.90;57.00;;;;;;5030862;28;20534;-77
2023/08/30 04:10:11;;;;;;;2.23;2.13;;;23.90;57.10;;;;;;5031407;28;20547;-77
2023/08/30 04:12:39;;;;;;;2.70;2.50;;;23.80;57.10;;;;;;5031550;28;20431;-77
2023/08/30 04:15:09;;;;;;;2.40;2.20;;;23.90;57.30;;;;;;5031042;28;20406;-78
2023/08/30 04:17:37;;;;;;;2.10;2.00;;;23.90;57.10;;;;;;5030718;28;20478;-77
2023/08/30 04:20:10;;;;;;;3.47;2.47;;;23.90;57.00;;;;;;5030861;28;20490;-77
2023/08/30 04:22:38;;;;;;;2.60;2.40;;;23.80;57.00;;;;;;5025820;28;20438;-77
2023/08/30 04:25:09;;;;;;;2.37;2.17;;;23.90;57.10;;;;;;5030768;28;20447;-77
2023/08/30 04:27:37;;;;;;;2.10;2.00;;;23.80;57.00;;;;;;5030966;28;20466;-77
2023/08/30 04:30:05;;;;;;;2.27;2.07;;;23.80;57.20;;;;;;5023176;28;20498;-77
2023/08/30 04:32:34;;;;;;;2.37;2.27;;;23.80;57.00;;;;;;5030743;28;20526;-77
2023/08/30 04:35:02;;;;;;;2.40;2.30;;;23.80;57.00;;;;;;5030746;28;20443;-76
2023/08/30 04:37:32;;;;;;;1.80;1.70;;;23.80;57.00;;;;;;5030718;28;20511;-77
2023/08/30 04:40:00;;;;;;;2.70;2.50;;;23.80;57.20;;;;;;5030376;28;20486;-77
2023/08/30 04:42:28;;;;;;;2.50;2.37;;;23.80;57.20;;;;;;5030437;28;20535;-77
2023/08/30 04:45:00;;;;;;;2.40;2.27;;;23.80;57.20;;;;;;5030594;28;20889;-77
2023/08/30 04:47:29;;;;;;;2.20;2.10;;;23.70;57.20;;;;;;5030436;28;20485;-77
2023/08/30 04:49:57;;;;;;;2.30;2.20;;;23.70;57.20;;;;;;5030211;28;20479;-77
2023/08/30 04:52:25;;;;;;;2.10;2.00;;;23.70;57.10;;;;;;5030266;28;20526;-77
2023/08/30 04:54:55;;;;;;;2.63;2.07;;;23.70;57.30;;;;;;5030065;28;20511;-77
2023/08/30 04:57:23;;;;;;;2.77;2.00;;;23.70;57.20;;;;;;5033842;28;20469;-77
2023/08/30 04:59:50;;;;;;;2.23;2.10;;;23.70;57.40;;;;;;5026179;28;20551;-77
2023/08/30 05:02:18;;;;;;;2.17;2.07;;;23.70;57.30;;;;;;5034992;28;20531;-76
2023/08/30 05:04:46;;;;;;;1.93;1.83;;;23.70;57.50;;;;;;5034430;28;20470;-77
2023/08/30 05:07:14;;;;;;;2.87;2.00;;;23.60;57.40;;;;;;5033783;28;20467;-77
2023/08/30 05:09:42;;;;;;;4.10;2.43;;;23.70;57.40;;;;;;5033352;28;20519;-77
2023/08/30 05:12:11;;;;;;;6.93;2.00;;;23.60;57.50;;;;;;5033752;28;20482;-77
2023/08/30 05:14:40;;;;;;;2.30;2.20;;;23.60;57.30;;;;;;5034146;28;20509;-77
2023/08/30 05:17:08;;;;;;;2.00;1.90;;;23.60;57.20;;;;;;5026208;28;20467;-78
2023/08/30 05:19:36;;;;;;;2.30;2.20;;;23.60;57.50;;;;;;5033833;28;20526;-77
2023/08/30 05:22:04;;;;;;;2.47;2.17;;;23.60;57.40;;;;;;5033629;28;20435;-78
2023/08/30 05:24:33;;;;;;;2.20;2.00;;;23.60;57.30;;;;;;5033745;28;20522;-77
2023/08/30 05:27:01;;;;;;;2.20;2.10;;;23.60;57.40;;;;;;5033803;28;20454;-78
2023/08/30 05:29:30;;;;;;;2.70;1.93;;;23.70;57.30;;;;;;5033916;28;20541;-78
2023/08/30 05:31:58;;;;;;;2.90;2.13;;;23.60;57.30;;;;;;5033814;28;20526;-77
2023/08/30 05:34:26;;;;;;;2.20;2.10;;;23.60;57.30;;;;;;5033061;28;20513;-76
2023/08/30 05:36:54;;;;;;;2.00;1.90;;;23.60;57.30;;;;;;5031663;28;20969;-77
2023/08/30 05:39:22;;;;;;;1.87;1.77;;;23.60;57.30;;;;;;5033099;28;20491;-77
2023/08/30 05:41:50;;;;;;;2.40;2.23;;;23.70;57.30;;;;;;5033399;28;20539;-77
2023/08/30 05:44:18;;;;;;;2.33;2.13;;;23.60;57.20;;;;;;5027880;28;20474;-77
2023/08/30 05:46:48;;;;;;;2.20;2.10;;;23.60;57.10;;;;;;5030281;28;20542;-77
2023/08/30 05:49:16;;;;;;;1.90;1.80;;;23.60;57.10;;;;;;5033007;28;20559;-77
2023/08/30 05:51:44;;;;;;;2.70;2.00;;;23.50;57.20;;;;;;5033529;28;20439;-77
2023/08/30 05:54:12;;;;;;;2.30;2.10;;;23.60;57.20;;;;;;5033453;28;20426;-77
2023/08/30 05:56:40;;;;;;;2.30;2.20;;;23.50;57.10;;;;;;5033508;28;21017;-77
2023/08/30 05:59:08;;;;;;;2.10;1.83;;;23.60;57.10;;;;;;5033343;28;20491;-76
2023/08/30 06:01:36;;;;;;;2.17;2.07;;;23.50;57.10;;;;;;5033182;28;20436;-77
2023/08/30 06:04:06;;;;;;;2.37;2.27;;;23.60;57.20;;;;;;5033016;28;20455;-77
2023/08/30 06:06:35;;;;;;;2.63;2.43;;;23.60;57.00;;;;;;5032684;28;20417;-77
2023/08/30 06:09:03;;;;;;;2.37;2.17;;;23.60;56.90;;;;;;5032919;28;20475;-77
2023/08/30 06:11:31;;;;;;;2.30;2.20;;;23.60;56.90;;;;;;5032378;28;20410;-77
2023/08/30 06:13:59;;;;;;;2.53;2.10;;;23.60;57.00;;;;;;5032984;28;20526;-77
2023/08/30 06:16:28;;;;;;;2.30;2.20;;;23.70;57.00;;;;;;5032931;28;20444;-77
2023/08/30 06:18:56;;;;;;;2.20;2.10;;;23.60;56.80;;;;;;5032867;28;20441;-77
2023/08/30 06:21:25;;;;;;;3.83;2.07;;;23.60;56.70;;;;;;5032842;28;20530;-77
2023/08/30 06:23:53;;;;;;;2.40;2.30;;;23.60;56.90;;;;;;5033886;28;20439;-77
2023/08/30 06:26:21;;;;;;;2.23;2.13;;;23.70;56.90;;;;;;5032501;28;20494;-77
2023/08/30 06:28:52;;;;;;;2.47;2.10;;;23.70;57.00;;;;;;5032953;28;20450;-76
2023/08/30 06:31:23;;;;;;;2.20;2.10;;;23.70;56.90;;;;;;5032221;28;20491;-77
2023/08/30 06:33:51;;;;;;;2.50;2.40;;;23.70;56.80;;;;;;5032508;28;20440;-76
2023/08/30 06:36:22;;;;;;;2.17;2.07;;;23.70;56.60;;;;;;5027709;28;20554;-77
2023/08/30 06:38:51;;;;;;;2.30;2.20;;;23.70;56.80;;;;;;5032166;28;20643;-76
2023/08/30 06:41:19;;;;;;;2.30;2.20;;;23.80;56.70;;;;;;5032695;28;20443;-78
2023/08/30 06:43:47;;;;;;;2.20;2.10;;;23.80;56.60;;;;;;5032272;28;20445;-76
2023/08/30 06:46:15;;;;;;;3.10;2.30;;;23.80;56.50;;;;;;5031997;28;20450;-77
2023/08/30 06:48:43;;;;;;;2.20;2.10;;;23.80;56.50;;;;;;5031850;28;20479;-76
2023/08/30 06:51:11;;;;;;;2.73;2.53;;;23.90;56.40;;;;;;5031876;28;20459;-77
2023/08/30 06:53:39;;;;;;;2.20;2.00;;;23.90;56.50;;;;;;5032367;28;20526;-76
2023/08/30 06:56:08;;;;;;;2.10;2.00;;;23.90;56.30;;;;;;5032024;28;20443;-76
2023/08/30 06:58:36;;;;;;;2.40;2.30;;;23.90;56.40;;;;;;5031495;28;20445;-76
2023/08/30 07:01:04;;;;;;;2.07;1.97;;;23.90;56.20;;;;;;5031794;28;20543;-75
2023/08/30 07:03:32;;;;;;;2.70;2.00;;;23.90;56.10;;;;;;5031884;28;20451;-77
2023/08/30 07:06:00;;;;;;;2.37;2.27;;;24.00;56.00;;;;;;5031976;28;20466;-77
2023/08/30 07:08:28;;;;;;;2.60;2.03;;;24.00;56.10;;;;;;5031535;28;20498;-77
2023/08/30 07:10:57;;;;;;;2.20;2.10;;;24.00;55.90;;;;;;5031010;28;20467;-77
2023/08/30 07:13:26;;;;;;;2.20;2.07;;;24.10;56.00;;;;;;5031548;28;20483;-77
2023/08/30 07:15:54;;;;;;;2.37;2.20;;;24.10;55.90;;;;;;5037966;28;20439;-78
2023/08/30 07:18:22;;;;;;;4.63;2.07;;;24.10;55.90;;;;;;5037417;28;20432;-78
2023/08/30 07:20:50;;;;;;;2.10;2.00;;;24.20;56.00;;;;;;5036703;28;20442;-78
2023/08/30 07:23:18;;;;;;;2.13;2.03;;;24.20;55.80;;;;;;5038122;28;20795;-78
2023/08/30 07:25:46;;;;;;;2.40;2.27;;;24.20;55.60;;;;;;5034065;28;20467;-77
2023/08/30 07:28:13;;;;;;;2.00;1.90;;;24.30;55.80;;;;;;5034155;28;20578;-78
2023/08/30 07:30:44;;;;;;;5.93;2.00;;;24.30;55.70;;;;;;5033550;28;20470;-77
2023/08/30 07:33:12;;;;;;;2.70;2.30;;;24.30;55.60;;;;;;5033589;28;20467;-76
2023/08/30 07:35:41;;;;;;;2.50;2.30;;;24.40;55.60;;;;;;5033419;28;20444;-78
2023/08/30 07:38:09;;;;;;;2.63;2.40;;;24.40;55.50;;;;;;5032948;28;20470;-77
2023/08/30 07:40:38;;;;;;;2.23;2.13;;;24.40;55.50;;;;;;5031543;28;20463;-77
2023/08/30 07:43:05;;;;;;;4.10;2.27;;;24.50;55.50;;;;;;5031630;28;20530;-77
2023/08/30 07:45:34;;;;;;;2.37;2.20;;;24.50;55.60;;;;;;5031448;28;20530;-77
2023/08/30 07:48:04;;;;;;;2.37;2.27;;;24.50;55.30;;;;;;5031494;28;20443;-76
2023/08/30 07:50:32;;;;;;;1.93;1.87;;;24.60;55.60;;;;;;5031022;28;20487;-77
2023/08/30 07:53:00;;;;;;;2.30;2.20;;;24.60;55.10;;;;;;5031153;28;20439;-77
2023/08/30 07:55:27;;;;;;;2.90;2.70;;;24.70;55.20;;;;;;5029301;28;20495;-77
2023/08/30 07:57:55;;;;;;;2.50;2.40;;;24.80;55.10;;;;;;5028824;28;20478;-77
2023/08/30 08:00:24;;;;;;;2.40;2.20;;;24.80;55.10;;;;;;5028556;28;20522;-77
2023/08/30 08:02:52;;;;;;;2.03;1.93;;;24.90;55.00;;;;;;5028672;28;20494;-78
2023/08/30 08:05:21;;;;;;;2.80;2.03;;;25.00;54.90;;;;;;5028498;28;20454;-77
2023/08/30 08:07:52;;;;;;;2.73;2.10;;;25.10;54.80;;;;;;5028768;28;20529;-77
2023/08/30 08:10:20;;;;;;;5.50;2.00;;;25.20;54.90;;;;;;5029960;28;20465;-77
2023/08/30 08:12:48;;;;;;;2.40;1.80;;;25.30;55.40;;;;;;5030713;28;20486;-77
2023/08/30 08:15:16;;;;;;;2.23;2.03;;;25.40;54.80;;;;;;5030408;28;20483;-77
2023/08/30 08:17:43;;;;;;;2.40;2.30;;;25.50;54.70;;;;;;5030098;28;20530;-78
2023/08/30 08:20:12;;;;;;;1.90;1.80;;;25.70;54.50;;;;;;5030432;28;20451;-78
2023/08/30 08:22:41;;;;;;;2.30;2.10;;;25.80;54.20;;;;;;5030271;28;20449;-77
2023/08/30 08:25:10;;;;;;;1.90;1.80;;;25.90;54.10;;;;;;5030543;28;20522;-76
2023/08/30 08:27:39;;;;;;;1.80;1.70;;;26.10;54.00;;;;;;5027511;28;20475;-77
2023/08/30 08:30:09;;;;;;;3.93;2.40;;;26.30;53.70;;;;;;5031786;28;20478;-77
2023/08/30 08:32:37;;;;;;;1.97;1.87;;;26.40;53.60;;;;;;5036998;28;20445;-77
2023/08/30 08:35:06;;;;;;;2.13;2.03;;;26.50;53.40;;;;;;5035472;28;20439;-78
2023/08/30 08:37:35;;;;;;;2.50;2.40;;;26.60;53.20;;;;;;5033757;28;20457;-76
2023/08/30 08:40:08;;;;;;;2.53;2.43;;;26.70;53.10;;;;;;5033737;28;20498;-77
2023/08/30 08:42:36;;;;;;;2.20;2.00;;;26.80;52.90;;;;;;5033667;28;20447;-76
2023/08/30 08:45:06;;;;;;;2.30;2.10;;;27.00;52.80;;;;;;5033529;28;20475;-77
2023/08/30 08:47:34;;;;;;;5.63;2.50;;;27.00;52.70;;;;;;5033245;28;20534;-76
2023/08/30 08:50:03;;;;;;;3.00;2.13;;;27.20;52.50;;;;;;5033248;28;20467;-76
2023/08/30 08:52:31;;;;;;;2.40;2.30;;;27.30;52.50;;;;;;5032351;28;20456;-77
2023/08/30 08:55:12;;;;;;;3.47;2.20;;;27.40;52.40;;;;;;5035535;28;20483;-78
2023/08/30 08:57:40;;;;;;;2.33;2.13;;;27.50;52.20;;;;;;5036524;28;20502;-76
2023/08/30 09:00:09;;;;;;;2.60;2.47;;;27.60;52.30;;;;;;5035096;28;20487;-77
2023/08/30 09:02:38;;;;;;;2.30;2.20;;;27.70;51.90;;;;;;5035086;28;20418;-76
2023/08/30 09:05:06;;;;;;;2.40;2.20;;;27.90;51.80;;;;;;5035246;28;20422;-77
2023/08/30 09:07:34;;;;;;;2.93;2.73;;;28.00;51.60;;;;;;5035319;28;20446;-75
2023/08/30 09:13:44;;;;;;;9.27;7.80;;;27.90;46.30;;;;;;5028680;28;20421;-76
2023/08/30 09:16:13;;;;;;;12.93;8.97;;;24.80;47.20;;;;;;5032124;28;20473;-77
2023/08/30 09:18:41;;;;;;;13.23;8.00;;;23.60;48.60;;;;;;5034775;28;20413;-75
2023/08/30 09:21:15;;;;;;;9.33;7.70;;;22.50;50.80;;;;;;5034304;28;20531;-77
2023/08/30 09:23:43;;;;;;;9.43;7.73;;;22.50;51.70;;;;;;5034897;28;20477;-78
2023/08/30 09:26:12;;;;;;;13.57;9.07;;;22.70;50.70;;;;;;5034166;28;20444;-75
2023/08/30 09:28:44;;;;;;;13.43;7.90;;;22.00;51.80;;;;;;5023341;28;20452;-77
2023/08/30 09:31:18;;;;;;;11.77;8.40;;;22.50;51.80;;;;;;5015631;28;20495;-76
2023/08/30 09:33:50;;;;;;;10.60;7.40;;;23.10;50.90;;;;;;5021061;28;20935;-77
2023/08/30 09:36:17;;;;;;;8.47;7.03;;;23.60;50.30;;;;;;5015156;28;20518;-76
2023/08/30 09:38:49;;;;;;;10.50;7.50;;;23.80;49.90;;;;;;5015473;28;20503;-75
2023/08/30 09:41:18;;;;;;;10.80;8.63;;;24.00;49.20;;;;;;5014479;28;20439;-76
2023/08/30 09:43:48;;;;;;;8.60;7.37;;;24.00;48.50;;;;;;5014980;28;20436;-76
2023/08/30 09:46:24;;;;;;;7.37;6.67;;;24.20;49.80;;;;;;5014288;28;20452;-76
2023/08/30 09:49:11;;;;;;;10.83;7.67;;;24.60;49.10;;;;;;5014294;28;20456;-78
2023/08/30 09:51:41;;;;;;;12.20;8.03;;;24.70;48.20;;;;;;5014552;28;20413;-76
2023/08/30 09:54:16;;;;;;;7.60;6.80;;;24.50;48.40;;;;;;5014565;28;20436;-77
2023/08/30 09:57:04;;;;;;;6.63;5.83;;;24.50;48.30;;;;;;5014309;28;20428;-77
2023/08/30 09:59:33;;;;;;;10.17;7.87;;;24.80;48.60;;;;;;5024308;28;20451;-76
2023/08/30 10:02:01;;;;;;;7.23;6.50;;;25.20;48.20;;;;;;5030251;28;20875;-78
2023/08/30 10:04:31;;;;;;;13.30;7.00;;;25.70;48.30;;;;;;5033440;28;20470;-78
2023/08/30 10:06:59;;;;;;;10.33;6.77;;;25.60;46.90;;;;;;5034377;28;20506;-77
2023/08/30 10:09:27;;;;;;;10.17;6.40;;;25.20;48.40;;;;;;5033478;28;20600;-77
2023/08/30 10:11:55;;;;;;;11.53;7.37;;;25.30;48.20;;;;;;5033648;28;20443;-76
2023/08/30 10:14:23;;;;;;;9.20;7.10;;;24.90;47.00;;;;;;5033494;28;20505;-75
2023/08/30 10:16:52;;;;;;;10.20;8.37;;;25.00;47.40;;;;;;5034275;28;20525;-77
2023/08/30 10:19:24;;;;;;;12.07;8.87;;;24.70;46.90;;;;;;5033934;28;20449;-78
2023/08/30 10:21:55;;;;;;;12.50;7.40;;;23.50;49.70;;;;;;5034417;28;20490;-76
2023/08/30 10:24:23;;;;;;;9.83;7.23;;;23.50;51.40;;;;;;5033019;28;20460;-77
2023/08/30 10:27:05;;;;;;;11.03;7.93;;;23.60;50.90;;;;;;5033571;28;20422;-77
2023/08/30 10:29:33;;;;;;;11.90;8.53;;;23.90;50.40;;;;;;5032460;28;20570;-77
2023/08/30 10:32:06;;;;;;;13.13;8.40;;;23.30;51.30;;;;;;5033862;28;20447;-77
2023/08/30 10:34:35;;;;;;;11.20;8.13;;;23.30;51.50;;;;;;5033149;28;20510;-78
2023/08/30 10:37:03;;;;;;;9.70;7.73;;;23.40;52.00;;;;;;5032964;28;20539;-76
2023/08/30 10:39:36;;;;;;;10.90;7.67;;;23.40;52.20;;;;;;5032995;28;20546;-75
2023/08/30 10:42:09;;;;;;;12.87;7.90;;;22.90;51.80;;;;;;5033020;28;20436;-75
2023/08/30 10:44:48;;;;;;;10.77;8.67;;;22.80;53.00;;;;;;5031318;28;20546;-75
2023/08/30 10:47:38;;;;;;;9.60;6.73;;;22.80;53.00;;;;;;5032753;28;20493;-74
2023/08/30 10:50:08;;;;;;;12.67;8.30;;;23.10;54.10;;;;;;5032698;28;20538;-75
2023/08/30 10:52:36;;;;;;;13.83;8.70;;;22.70;52.00;;;;;;5032806;28;20444;-75
2023/08/30 10:55:07;;;;;;;17.60;9.80;;;22.50;53.40;;;;;;5032783;28;20443;-75
2023/08/30 10:57:35;;;;;;;12.80;7.70;;;21.90;53.90;;;;;;5031508;28;20439;-77
2023/08/30 11:00:09;;;;;;;8.83;5.50;;;22.10;56.40;;;;;;5033379;28;20461;-78
2023/08/30 11:02:39;;;;;;;5.40;4.20;;;23.20;54.70;;;;;;5033168;28;20539;-76
2023/08/30 11:05:07;;;;;;;5.53;4.00;;;24.20;52.60;;;;;;5037328;28;20459;-81
2023/08/30 11:07:35;;;;;;;4.77;3.63;;;24.90;51.20;;;;;;5039491;28;20452;-82
2023/08/30 11:10:05;;;;;;;3.90;3.40;;;25.50;50.40;;;;;;5043499;28;20439;-82
2023/08/30 11:12:33;;;;;;;3.63;3.10;;;26.00;49.50;;;;;;5044231;28;20953;-80
2023/08/30 11:15:01;;;;;;;9.27;3.47;;;26.30;48.80;;;;;;5034640;28;20456;-80
2023/08/30 11:17:30;;;;;;;3.17;2.90;;;26.70;48.30;;;;;;5042233;28;20506;-81
2023/08/30 11:20:06;;;;;;;9.10;3.33;;;26.90;48.10;;;;;;5044486;28;20467;-74
2023/08/30 11:22:36;;;;;;;4.20;3.27;;;27.10;47.70;;;;;;5031629;28;20451;-80
2023/08/30 11:25:05;;;;;;;10.60;3.50;;;27.30;47.60;;;;;;5039811;28;20429;-80
2023/08/30 11:27:33;;;;;;;11.33;3.90;;;27.40;47.40;;;;;;5035359;28;20406;-81
2023/08/30 11:30:02;;;;;;;6.30;3.27;;;27.50;47.20;;;;;;5032561;28;20554;-78
2023/08/30 11:32:33;;;;;;;3.57;3.27;;;27.70;47.40;;;;;;5034374;28;20446;-81
2023/08/30 11:35:03;;;;;;;7.67;3.57;;;27.80;47.10;;;;;;5035950;28;20422;-81
2023/08/30 11:37:31;;;;;;;11.63;3.30;;;27.90;47.20;;;;;;5041007;28;20417;-81
2023/08/30 11:39:59;;;;;;;6.33;3.40;;;28.10;47.20;;;;;;5034046;28;20500;-80
2023/08/30 11:42:27;;;;;;;4.53;3.57;;;28.20;46.90;;;;;;5031293;28;20465;-79
2023/08/30 11:44:54;;;;;;;3.83;3.40;;;28.30;46.90;;;;;;5036199;28;20428;-81
2023/08/30 11:47:24;;;;;;;8.80;3.80;;;28.30;46.80;;;;;;5036975;28;20418;-80
2023/08/30 11:49:53;;;;;;;6.43;3.47;;;28.40;46.70;;;;;;5035743;28;20444;-82
2023/08/30 11:52:23;;;;;;;4.73;2.80;;;28.40;46.70;;;;;;5038254;28;20506;-81
2023/08/30 11:54:52;;;;;;;4.00;2.83;;;28.40;46.80;;;;;;5042171;28;20474;-81
2023/08/30 11:57:20;;;;;;;10.83;3.70;;;28.40;46.80;;;;;;5041972;28;20422;-80
2023/08/30 11:59:49;;;;;;;5.33;3.30;;;28.40;46.90;;;;;;5039956;28;20468;-81
2023/08/30 12:02:18;;;;;;;10.20;3.33;;;28.40;46.90;;;;;;5035645;28;20477;-77
2023/08/30 12:04:46;;;;;;;3.77;2.90;;;28.40;46.90;;;;;;5032178;28;20410;-78
2023/08/30 12:07:23;;;;;;;6.00;3.07;;;28.40;46.90;;;;;;5033977;28;20425;-78
2023/08/30 12:09:51;;;;;;;3.90;2.90;;;28.40;47.10;;;;;;5033180;28;20524;-79
2023/08/30 12:12:19;;;;;;;5.53;2.80;;;28.40;47.10;;;;;;5033949;28;20453;-79
2023/08/30 12:14:55;;;;;;;4.07;3.13;;;28.40;47.00;;;;;;5028943;28;20453;-78
2023/08/30 12:17:23;;;;;;;5.83;3.40;;;28.40;47.00;;;;;;5031790;28;20501;-78
2023/08/30 12:19:56;;;;;;;2.80;2.57;;;28.30;47.00;;;;;;5033506;28;20488;-79
2023/08/30 12:22:36;;;;;;;3.87;2.80;;;28.30;47.10;;;;;;5030576;28;20422;-79
2023/08/30 12:25:05;;;;;;;3.50;3.20;;;28.30;47.00;;;;;;5035144;28;20445;-78
2023/08/30 12:27:33;;;;;;;6.00;3.07;;;28.30;46.90;;;;;;5033485;28;20478;-78
2023/08/30 12:30:02;;;;;;;6.67;3.37;;;28.30;47.00;;;;;;5033221;28;20571;-78
2023/08/30 12:32:31;;;;;;;4.50;3.17;;;28.30;47.10;;;;;;5034247;28;20475;-78
2023/08/30 12:35:00;;;;;;;6.73;3.33;;;28.30;47.20;;;;;;5034706;28;20449;-78
2023/08/30 12:37:29;;;;;;;4.37;3.20;;;28.30;47.30;;;;;;5034452;28;20448;-78
2023/08/30 12:39:57;;;;;;;3.40;3.13;;;28.20;47.30;;;;;;5033917;28;20472;-78
2023/08/30 12:42:26;;;;;;;4.03;3.47;;;28.20;47.70;;;;;;5033942;28;20862;-79
2023/08/30 12:44:54;;;;;;;4.20;3.03;;;28.20;47.90;;;;;;5034330;28;20426;-78
2023/08/30 12:47:22;;;;;;;4.13;3.77;;;28.20;48.10;;;;;;5033674;28;20422;-78
2023/08/30 12:49:50;;;;;;;4.70;3.70;;;28.20;48.20;;;;;;5026438;28;20440;-77
2023/08/30 12:52:18;;;;;;;7.17;3.60;;;28.20;48.10;;;;;;5033948;28;20485;-78
2023/08/30 12:54:48;;;;;;;5.83;3.80;;;28.20;48.40;;;;;;5034298;28;20419;-77
2023/08/30 12:57:16;;;;;;;14.47;4.50;;;28.20;48.40;;;;;;5034746;28;20453;-78
2023/08/30 12:59:44;;;;;;;7.40;3.70;;;28.10;48.60;;;;;;5033014;28;20467;-78